Time,TemperatureF,DewpointF,PressureIn,WindDirection,WindDirectionDegrees,WindSpeedMPH,WindSpeedGustMPH,Humidity,HourlyPrecipIn,Conditions,Clouds,dailyrainin,SoftwareType,DateUTC
2013-01-19 00:04:00,34.4,30.6,29.83,SSW,212,7.0,9.0,86,0.00,,---,0.00,VWS V14.01,2013-01-19 06:04:00,
2013-01-19 00:09:00,34.2,30.7,29.83,SW,214,5.0,9.0,87,0.00,,---,0.00,VWS V14.01,2013-01-19 06:09:00,
2013-01-19 00:14:00,34.1,30.6,29.83,SSW,207,6.0,9.0,87,0.00,,---,0.00,VWS V14.01,2013-01-19 06:14:00,
2013-01-19 00:19:00,34.6,31.4,29.83,SSW,205,6.0,9.0,88,0.00,,---,0.00,VWS V14.01,2013-01-19 06:19:00,
2013-01-19 00:24:00,34.5,31.0,29.83,SSW,206,7.0,9.0,87,0.00,,---,0.00,VWS V14.01,2013-01-19 06:24:00,
2013-01-19 00:29:00,34.3,30.8,29.83,SSW,207,6.0,9.0,87,0.00,,---,0.00,VWS V14.01,2013-01-19 06:29:00,
2013-01-19 00:34:00,34.3,30.8,29.83,SSW,204,7.0,8.0,87,0.00,,---,0.00,VWS V14.01,2013-01-19 06:34:00,
2013-01-19 00:39:00,34.5,31.3,29.83,SSW,209,7.0,10.0,88,0.00,,---,0.00,VWS V14.01,2013-01-19 06:39:00,
2013-01-19 00:44:00,34.5,31.0,29.83,SSW,207,6.0,10.0,87,0.00,,---,0.00,VWS V14.01,2013-01-19 06:44:00,
2013-01-19 00:49:00,34.5,31.0,29.83,SSW,203,6.0,9.0,87,0.00,,---,0.00,VWS V14.01,2013-01-19 06:49:00,
2013-01-19 00:54:00,34.4,30.9,29.83,SSW,205,5.0,9.0,87,0.00,,---,0.00,VWS V14.01,2013-01-19 06:54:00,
2013-01-19 01:00:00,34.6,31.4,29.83,SSW,205,7.0,9.0,88,0.00,,---,0.00,VWS V14.01,2013-01-19 07:00:00,
2013-01-19 01:05:00,34.6,31.4,29.83,SSW,196,6.0,8.0,88,0.00,,---,0.00,VWS V14.01,2013-01-19 07:05:00,
2013-01-19 01:10:00,34.4,31.2,29.83,SSW,198,4.0,8.0,88,0.00,,---,0.00,VWS V14.01,2013-01-19 07:10:00,
2013-01-19 01:15:00,34.3,31.1,29.84,SSW,201,6.0,8.0,88,0.00,,---,0.00,VWS V14.01,2013-01-19 07:15:00,
2013-01-19 01:20:00,34.1,30.9,29.84,SSW,200,6.0,7.0,88,0.00,,---,0.00,VWS V14.01,2013-01-19 07:20:00,
2013-01-19 01:25:00,33.7,30.5,29.84,SSW,200,4.0,7.0,88,0.00,,---,0.00,VWS V14.01,2013-01-19 07:25:00,
2013-01-19 01:30:00,33.5,30.6,29.84,SSW,200,4.0,7.0,89,0.00,,---,0.00,VWS V14.01,2013-01-19 07:30:00,
2013-01-19 01:35:00,33.6,30.7,29.84,SSW,200,5.0,7.0,89,0.00,,---,0.00,VWS V14.01,2013-01-19 07:35:00,
2013-01-19 01:40:00,33.8,31.2,29.84,SSW,200,4.0,7.0,90,0.00,,---,0.00,VWS V14.01,2013-01-19 07:40:00,
2013-01-19 01:45:00,33.9,31.3,29.85,SSW,194,6.0,7.0,90,0.00,,---,0.00,VWS V14.01,2013-01-19 07:45:00,
2013-01-19 01:50:00,34.2,31.3,29.85,South,190,6.0,9.0,89,0.00,,---,0.00,VWS V14.01,2013-01-19 07:50:00,
2013-01-19 01:55:00,34.2,31.3,29.84,SSW,194,6.0,9.0,89,0.00,,---,0.00,VWS V14.01,2013-01-19 07:55:00,
2013-01-19 02:00:00,34.2,31.3,29.85,SSW,194,7.0,7.0,89,0.00,,---,0.00,VWS V14.01,2013-01-19 08:00:00,
2013-01-19 02:05:00,34.1,31.2,29.85,SSW,194,4.0,7.0,89,0.00,,---,0.00,VWS V14.01,2013-01-19 08:05:00,
2013-01-19 02:11:00,34.2,31.3,29.85,SSW,210,7.0,7.0,89,0.00,,---,0.00,VWS V14.01,2013-01-19 08:11:00,
2013-01-19 02:16:00,34.3,31.4,29.85,SSW,200,6.0,7.0,89,0.00,,---,0.00,VWS V14.01,2013-01-19 08:16:00,
2013-01-19 02:21:00,34.3,31.4,29.85,SSW,197,7.0,7.0,89,0.00,,---,0.00,VWS V14.01,2013-01-19 08:21:00,
2013-01-19 02:26:00,34.1,31.2,29.86,SSW,197,6.0,7.0,89,0.00,,---,0.00,VWS V14.01,2013-01-19 08:26:00,
2013-01-19 02:31:00,34.0,31.1,29.86,SSW,197,5.0,6.0,89,0.00,,---,0.00,VWS V14.01,2013-01-19 08:31:00,
2013-01-19 02:36:00,33.8,31.2,29.86,SSW,197,5.0,6.0,90,0.00,,---,0.00,VWS V14.01,2013-01-19 08:36:00,
2013-01-19 02:41:00,33.7,31.1,29.85,SSW,197,4.0,6.0,90,0.00,,---,0.00,VWS V14.01,2013-01-19 08:41:00,
2013-01-19 02:46:00,33.6,31.0,29.85,SSW,197,3.0,5.0,90,0.00,,---,0.00,VWS V14.01,2013-01-19 08:46:00,
2013-01-19 02:51:00,33.6,31.0,29.85,SSW,197,6.0,7.0,90,0.00,,---,0.00,VWS V14.01,2013-01-19 08:51:00,
2013-01-19 02:56:00,33.9,31.3,29.85,SSW,197,6.0,7.0,90,0.00,,---,0.00,VWS V14.01,2013-01-19 08:56:00,
2013-01-19 03:01:00,34.2,31.6,29.85,SSW,196,6.0,7.0,90,0.00,,---,0.00,VWS V14.01,2013-01-19 09:01:00,
2013-01-19 03:06:00,34.3,31.7,29.85,SSW,200,5.0,7.0,90,0.00,,---,0.00,VWS V14.01,2013-01-19 09:06:00,
2013-01-19 03:12:00,34.1,31.2,29.85,SSW,200,7.0,7.0,89,0.00,,---,0.00,VWS V14.01,2013-01-19 09:12:00,
2013-01-19 03:17:00,34.4,31.8,29.85,SSW,200,7.0,8.0,90,0.00,,---,0.00,VWS V14.01,2013-01-19 09:17:00,
2013-01-19 03:22:00,34.8,31.9,29.85,SSW,200,7.0,10.0,89,0.00,,---,0.00,VWS V14.01,2013-01-19 09:22:00,
2013-01-19 03:27:00,35.0,32.1,29.84,SSW,204,7.0,10.0,89,0.00,,---,0.00,VWS V14.01,2013-01-19 09:27:00,
2013-01-19 03:32:00,34.8,31.6,29.84,SSW,200,6.0,7.0,88,0.00,,---,0.00,VWS V14.01,2013-01-19 09:32:00,
2013-01-19 03:37:00,34.7,31.8,29.84,SSW,201,6.0,8.0,89,0.00,,---,0.00,VWS V14.01,2013-01-19 09:37:00,
2013-01-19 03:42:00,34.9,32.0,29.84,SSW,202,4.0,9.0,89,0.00,,---,0.00,VWS V14.01,2013-01-19 09:42:00,
2013-01-19 03:47:00,34.7,31.8,29.84,SSW,199,5.0,7.0,89,0.00,,---,0.00,VWS V14.01,2013-01-19 09:47:00,
2013-01-19 03:52:00,34.5,31.6,29.85,SSW,203,5.0,7.0,89,0.00,,---,0.00,VWS V14.01,2013-01-19 09:52:00,
2013-01-19 03:57:00,34.3,31.4,29.84,SSW,198,5.0,7.0,89,0.00,,---,0.00,VWS V14.01,2013-01-19 09:57:00,
2013-01-19 04:02:00,34.2,31.3,29.85,SSW,198,6.0,7.0,89,0.00,,---,0.00,VWS V14.01,2013-01-19 10:02:00,
2013-01-19 04:07:00,34.2,31.6,29.85,South,190,6.0,8.0,90,0.00,,---,0.00,VWS V14.01,2013-01-19 10:07:00,
2013-01-19 04:12:00,34.4,31.8,29.85,South,182,7.0,11.0,90,0.00,,---,0.00,VWS V14.01,2013-01-19 10:12:00,
2013-01-19 04:17:00,34.5,31.6,29.85,South,189,4.0,7.0,89,0.00,,---,0.00,VWS V14.01,2013-01-19 10:17:00,
2013-01-19 04:22:00,34.5,31.6,29.85,SSW,204,3.0,7.0,89,0.00,,---,0.00,VWS V14.01,2013-01-19 10:22:00,
2013-01-19 04:27:00,34.5,31.6,29.84,SSW,202,4.0,7.0,89,0.00,,---,0.00,VWS V14.01,2013-01-19 10:27:00,
2013-01-19 04:33:00,34.3,31.4,29.84,SSW,202,3.0,5.0,89,0.00,,---,0.00,VWS V14.01,2013-01-19 10:33:00,
2013-01-19 04:38:00,34.4,31.8,29.84,SSW,202,5.0,7.0,90,0.00,,---,0.00,VWS V14.01,2013-01-19 10:38:00,
2013-01-19 04:43:00,34.3,31.7,29.84,SSW,202,2.0,7.0,90,0.00,,---,0.00,VWS V14.01,2013-01-19 10:43:00,
2013-01-19 04:48:00,34.3,31.7,29.84,SSW,201,3.0,6.0,90,0.00,,---,0.00,VWS V14.01,2013-01-19 10:48:00,
2013-01-19 04:53:00,34.3,31.7,29.84,SSW,201,5.0,6.0,90,0.00,,---,0.00,VWS V14.01,2013-01-19 10:53:00,
2013-01-19 04:58:00,34.3,31.4,29.84,SSW,201,3.0,6.0,89,0.00,,---,0.00,VWS V14.01,2013-01-19 10:58:00,
2013-01-19 05:03:00,34.2,31.6,29.84,SSW,201,4.0,5.0,90,0.00,,---,0.00,VWS V14.01,2013-01-19 11:03:00,
2013-01-19 05:08:00,34.2,31.6,29.84,SSW,201,2.0,5.0,90,0.00,,---,0.00,VWS V14.01,2013-01-19 11:08:00,
2013-01-19 05:13:00,34.1,31.5,29.84,SSW,201,5.0,5.0,90,0.00,,---,0.00,VWS V14.01,2013-01-19 11:13:00,
2013-01-19 06:48:00,34.3,31.7,29.82,South,191,4.0,9.0,90,0.00,,---,0.00,VWS V14.01,2013-01-19 12:48:00,
2013-01-19 06:49:00,34.3,31.7,29.82,South,188,7.0,9.0,90,0.00,,---,0.00,VWS V14.01,2013-01-19 12:49:00,
2013-01-19 06:54:00,34.3,31.7,29.82,SSW,197,7.0,9.0,90,0.00,,---,0.00,VWS V14.01,2013-01-19 12:54:00,
2013-01-19 06:59:00,34.4,31.8,29.81,SSW,197,6.0,9.0,90,0.00,,---,0.00,VWS V14.01,2013-01-19 12:59:00,
2013-01-19 07:04:00,34.3,31.7,29.81,SSW,200,6.0,8.0,90,0.00,,---,0.00,VWS V14.01,2013-01-19 13:04:00,
2013-01-19 07:09:00,34.3,32.0,29.81,South,184,8.0,10.0,91,0.00,,---,0.00,VWS V14.01,2013-01-19 13:09:00,
2013-01-19 07:14:00,34.4,32.0,29.80,South,184,8.0,10.0,91,0.00,,---,0.00,VWS V14.01,2013-01-19 13:14:00,
2013-01-19 07:19:00,34.3,32.0,29.80,South,187,7.0,11.0,91,0.00,,---,0.00,VWS V14.01,2013-01-19 13:19:00,
2013-01-19 07:24:00,34.4,32.0,29.80,South,171,8.0,13.0,91,0.00,,---,0.00,VWS V14.01,2013-01-19 13:24:00,
2013-01-19 07:29:00,34.6,32.0,29.79,South,174,8.0,14.0,90,0.00,,---,0.00,VWS V14.01,2013-01-19 13:29:00,
2013-01-19 07:34:00,34.8,32.2,29.79,South,174,9.0,11.0,90,0.00,,---,0.00,VWS V14.01,2013-01-19 13:34:00,
2013-01-19 07:39:00,34.9,32.3,29.80,SSW,192,9.0,14.0,90,0.00,,---,0.00,VWS V14.01,2013-01-19 13:39:00,
2013-01-19 07:44:00,34.9,32.3,29.79,SSW,197,7.0,14.0,90,0.00,,---,0.00,VWS V14.01,2013-01-19 13:44:00,
2013-01-19 07:50:00,35.1,32.5,29.78,South,188,10.0,13.0,90,0.00,,---,0.00,VWS V14.01,2013-01-19 13:50:00,
2013-01-19 07:55:00,35.1,32.2,29.79,SSW,202,10.0,13.0,89,0.00,,---,0.00,VWS V14.01,2013-01-19 13:55:00,
2013-01-19 08:00:00,35.2,32.3,29.79,SSW,198,7.0,13.0,89,0.00,,---,0.00,VWS V14.01,2013-01-19 14:00:00,
2013-01-19 08:05:00,35.1,32.2,29.78,SSW,208,6.0,10.0,89,0.00,,---,0.00,VWS V14.01,2013-01-19 14:05:00,
2013-01-19 08:10:00,35.0,32.1,29.78,SSW,196,7.0,10.0,89,0.00,,---,0.00,VWS V14.01,2013-01-19 14:10:00,
2013-01-19 08:15:00,35.0,32.1,29.80,SW,219,10.0,12.0,89,0.00,,---,0.00,VWS V14.01,2013-01-19 14:15:00,
2013-01-19 08:20:00,34.8,31.9,29.80,SSW,205,7.0,11.0,89,0.00,,---,0.00,VWS V14.01,2013-01-19 14:20:00,
2013-01-19 08:25:00,34.9,32.3,29.80,South,188,9.0,11.0,90,0.00,,---,0.00,VWS V14.01,2013-01-19 14:25:00,
2013-01-19 08:30:00,35.0,32.4,29.80,SSW,196,8.0,11.0,90,0.00,,---,0.00,VWS V14.01,2013-01-19 14:30:00,
2013-01-19 08:35:00,35.2,32.6,29.79,South,190,8.0,10.0,90,0.00,,---,0.00,VWS V14.01,2013-01-19 14:35:00,
2013-01-19 08:41:00,35.3,32.4,29.78,SSE,167,5.0,10.0,89,0.00,,---,0.00,VWS V14.01,2013-01-19 14:41:00,
2013-01-19 08:46:00,35.4,32.5,29.79,SSW,194,6.0,7.0,89,0.00,,---,0.00,VWS V14.01,2013-01-19 14:46:00,
2013-01-19 08:51:00,35.4,32.5,29.79,SSW,199,11.0,14.0,89,0.00,,---,0.00,VWS V14.01,2013-01-19 14:51:00,
2013-01-19 08:56:00,35.5,32.6,29.79,SSW,199,10.0,14.0,89,0.00,,---,0.00,VWS V14.01,2013-01-19 14:56:00,
2013-01-19 09:01:00,35.6,32.7,29.79,SSW,199,9.0,9.0,89,0.00,,---,0.00,VWS V14.01,2013-01-19 15:01:00,
2013-01-19 09:06:00,35.7,32.5,29.78,South,185,9.0,11.0,88,0.00,,---,0.00,VWS V14.01,2013-01-19 15:06:00,
2013-01-19 09:11:00,35.7,32.5,29.78,SSW,198,7.0,11.0,88,0.00,,---,0.00,VWS V14.01,2013-01-19 15:11:00,
2013-01-19 09:16:00,35.8,32.9,29.78,South,190,8.0,10.0,89,0.00,,---,0.00,VWS V14.01,2013-01-19 15:16:00,
2013-01-19 09:21:00,36.0,32.8,29.78,South,186,7.0,12.0,88,0.00,,---,0.00,VWS V14.01,2013-01-19 15:21:00,
2013-01-19 09:27:00,36.1,32.9,29.77,South,184,6.0,12.0,88,0.00,,---,0.00,VWS V14.01,2013-01-19 15:27:00,
2013-01-19 09:32:00,36.2,33.0,29.77,SSE,167,10.0,11.0,88,0.00,,---,0.00,VWS V14.01,2013-01-19 15:32:00,
2013-01-19 09:37:00,36.2,33.0,29.77,SSW,192,7.0,11.0,88,0.00,,---,0.00,VWS V14.01,2013-01-19 15:37:00,
2013-01-19 09:42:00,36.3,33.1,29.77,South,180,8.0,12.0,88,0.00,,---,0.00,VWS V14.01,2013-01-19 15:42:00,
2013-01-19 09:47:00,36.3,33.1,29.76,South,179,8.0,11.0,88,0.00,,---,0.00,VWS V14.01,2013-01-19 15:47:00,
2013-01-19 09:52:00,36.4,32.9,29.76,SSW,195,10.0,12.0,87,0.00,,---,0.00,VWS V14.01,2013-01-19 15:52:00,
2013-01-19 09:57:00,36.4,33.2,29.76,South,187,12.0,16.0,88,0.00,,---,0.00,VWS V14.01,2013-01-19 15:57:00,
2013-01-19 10:02:00,36.5,33.0,29.75,South,188,11.0,16.0,87,0.00,,---,0.00,VWS V14.01,2013-01-19 16:02:00,
2013-01-19 10:07:00,36.6,33.1,29.76,SSW,193,12.0,16.0,87,0.00,,---,0.00,VWS V14.01,2013-01-19 16:07:00,
2013-01-19 10:13:00,36.7,33.2,29.76,SSW,208,11.0,16.0,87,0.00,,---,0.00,VWS V14.01,2013-01-19 16:13:00,
2013-01-19 10:18:00,36.8,33.3,29.74,SSW,192,12.0,16.0,87,0.00,,---,0.00,VWS V14.01,2013-01-19 16:18:00,
2013-01-19 10:23:00,36.8,33.3,29.74,SSW,194,11.0,16.0,87,0.00,,---,0.00,VWS V14.01,2013-01-19 16:23:00,
2013-01-19 10:28:00,36.8,33.3,29.74,South,182,9.0,16.0,87,0.00,,---,0.00,VWS V14.01,2013-01-19 16:28:00,
2013-01-19 10:33:00,37.0,33.5,29.73,South,175,9.0,14.0,87,0.00,,---,0.00,VWS V14.01,2013-01-19 16:33:00,
2013-01-19 10:38:00,37.0,33.2,29.75,SW,225,11.0,17.0,86,0.00,,---,0.00,VWS V14.01,2013-01-19 16:38:00,
2013-01-19 10:43:00,37.1,33.3,29.74,SSW,207,9.0,17.0,86,0.00,,---,0.00,VWS V14.01,2013-01-19 16:43:00,
2013-01-19 10:48:00,37.1,33.6,29.73,SSW,196,7.0,13.0,87,0.00,,---,0.00,VWS V14.01,2013-01-19 16:48:00,
2013-01-19 10:53:00,37.2,33.7,29.72,SSW,193,10.0,13.0,87,0.00,,---,0.00,VWS V14.01,2013-01-19 16:53:00,
2013-01-19 10:58:00,37.3,33.5,29.72,SSW,200,10.0,14.0,86,0.00,,---,0.00,VWS V14.01,2013-01-19 16:58:00,
2013-01-19 11:03:00,37.5,34.0,29.72,SSW,198,8.0,14.0,87,0.00,,---,0.00,VWS V14.01,2013-01-19 17:03:00,
2013-01-19 11:08:00,37.7,33.9,29.71,South,190,14.0,15.0,86,0.00,,---,0.00,VWS V14.01,2013-01-19 17:08:00,
2013-01-19 11:15:00,37.8,33.7,29.71,South,175,11.0,16.0,85,0.00,,---,0.00,VWS V14.01,2013-01-19 17:15:00,
2013-01-19 11:20:00,37.7,33.6,29.70,South,177,9.0,17.0,85,0.00,,---,0.00,VWS V14.01,2013-01-19 17:20:00,
2013-01-19 11:25:00,37.9,34.1,29.70,SSW,200,8.0,17.0,86,0.00,,---,0.00,VWS V14.01,2013-01-19 17:25:00,
2013-01-19 11:30:00,37.9,33.8,29.70,SW,216,9.0,12.0,85,0.00,,---,0.00,VWS V14.01,2013-01-19 17:30:00,
2013-01-19 11:35:00,38.0,33.9,29.70,SSW,212,9.0,15.0,85,0.00,,---,0.00,VWS V14.01,2013-01-19 17:35:00,
2013-01-19 11:40:00,38.5,34.4,29.69,SW,214,10.0,15.0,85,0.00,,---,0.00,VWS V14.01,2013-01-19 17:40:00,
2013-01-19 11:46:00,39.3,34.9,29.69,SSW,205,10.0,11.0,84,0.00,,---,0.00,VWS V14.01,2013-01-19 17:46:00,
2013-01-19 11:51:00,40.0,35.3,29.68,SSW,193,12.0,14.0,83,0.00,,---,0.00,VWS V14.01,2013-01-19 17:51:00,
2013-01-19 11:57:00,40.1,35.1,29.68,SSW,205,11.0,16.0,82,0.00,,---,0.00,VWS V14.01,2013-01-19 17:57:00,
2013-01-19 12:02:00,40.1,34.8,29.68,South,188,18.0,19.0,81,0.00,,---,0.00,VWS V14.01,2013-01-19 18:02:00,
2013-01-19 12:07:00,40.1,34.8,29.67,SSW,211,8.0,20.0,81,0.00,,---,0.00,VWS V14.01,2013-01-19 18:07:00,
2013-01-19 12:12:00,40.3,34.6,29.67,SSW,203,15.0,21.0,80,0.00,,---,0.00,VWS V14.01,2013-01-19 18:12:00,
2013-01-19 12:18:00,40.2,34.5,29.67,SW,214,14.0,18.0,80,0.00,,---,0.00,VWS V14.01,2013-01-19 18:18:00,
2013-01-19 12:23:00,40.2,34.8,29.67,SSW,202,17.0,18.0,81,0.00,,---,0.00,VWS V14.01,2013-01-19 18:23:00,
2013-01-19 12:28:00,40.1,34.8,29.66,SW,214,15.0,19.0,81,0.00,,---,0.00,VWS V14.01,2013-01-19 18:28:00,
2013-01-19 12:33:00,40.4,35.0,29.66,SSW,210,14.0,14.0,81,0.00,,---,0.00,VWS V14.01,2013-01-19 18:33:00,
2013-01-19 12:38:00,40.4,34.7,29.66,SW,218,18.0,19.0,80,0.00,,---,0.00,VWS V14.01,2013-01-19 18:38:00,
2013-01-19 12:43:00,40.1,34.4,29.65,SSW,197,12.0,19.0,80,0.00,,---,0.00,VWS V14.01,2013-01-19 18:43:00,
2013-01-19 12:48:00,40.1,34.4,29.65,SW,216,16.0,18.0,80,0.00,,---,0.00,VWS V14.01,2013-01-19 18:48:00,
2013-01-19 12:53:00,40.0,34.3,29.65,SSW,192,10.0,19.0,80,0.00,,---,0.00,VWS V14.01,2013-01-19 18:53:00,
2013-01-19 12:58:00,40.3,34.6,29.65,SSW,209,12.0,20.0,80,0.00,,---,0.00,VWS V14.01,2013-01-19 18:58:00,
2013-01-19 13:03:00,40.5,34.8,29.65,SSW,213,13.0,18.0,80,0.00,,---,0.00,VWS V14.01,2013-01-19 19:03:00,
2013-01-19 13:08:00,40.2,34.5,29.65,SW,222,17.0,18.0,80,0.00,,---,0.00,VWS V14.01,2013-01-19 19:08:00,
2013-01-19 13:14:00,40.2,34.5,29.65,SSW,199,8.0,19.0,80,0.00,,---,0.00,VWS V14.01,2013-01-19 19:14:00,
2013-01-19 13:19:00,40.1,34.4,29.65,SSW,194,10.0,16.0,80,0.00,,---,0.00,VWS V14.01,2013-01-19 19:19:00,
2013-01-19 13:25:00,40.8,34.8,29.65,SSW,205,14.0,19.0,79,0.00,,---,0.00,VWS V14.01,2013-01-19 19:25:00,
2013-01-19 13:30:00,41.2,35.2,29.65,SSW,205,15.0,19.0,79,0.00,,---,0.00,VWS V14.01,2013-01-19 19:30:00,
2013-01-19 13:35:00,41.3,35.3,29.64,SW,215,16.0,17.0,79,0.00,,---,0.00,VWS V14.01,2013-01-19 19:35:00,
2013-01-19 13:40:00,41.2,34.9,29.64,SSW,211,8.0,18.0,78,0.00,,---,0.00,VWS V14.01,2013-01-19 19:40:00,
2013-01-19 13:45:00,41.3,35.0,29.64,SW,217,14.0,18.0,78,0.00,,---,0.00,VWS V14.01,2013-01-19 19:45:00,
2013-01-19 13:50:00,41.5,35.2,29.64,SSW,203,13.0,21.0,78,0.00,,---,0.00,VWS V14.01,2013-01-19 19:50:00,
2013-01-19 13:55:00,41.2,34.9,29.64,SSW,198,16.0,21.0,78,0.00,,---,0.00,VWS V14.01,2013-01-19 19:55:00,
2013-01-19 14:01:00,41.0,34.7,29.63,SSW,207,13.0,17.0,78,0.00,,---,0.00,VWS V14.01,2013-01-19 20:01:00,
2013-01-19 14:06:00,41.1,34.8,29.64,SSW,210,11.0,19.0,78,0.00,,---,0.00,VWS V14.01,2013-01-19 20:06:00,
2013-01-19 14:11:00,41.0,34.7,29.63,SW,215,17.0,19.0,78,0.00,,---,0.00,VWS V14.01,2013-01-19 20:11:00,
2013-01-19 14:17:00,40.8,34.5,29.63,SSW,196,11.0,18.0,78,0.00,,---,0.00,VWS V14.01,2013-01-19 20:17:00,
2013-01-19 14:22:00,40.9,34.9,29.62,South,188,10.0,18.0,79,0.00,,---,0.00,VWS V14.01,2013-01-19 20:22:00,
2013-01-19 14:27:00,41.0,35.0,29.62,SSW,213,14.0,18.0,79,0.00,,---,0.00,VWS V14.01,2013-01-19 20:27:00,
2013-01-19 14:32:00,40.9,34.9,29.62,SSW,211,11.0,19.0,79,0.00,,---,0.00,VWS V14.01,2013-01-19 20:32:00,
2013-01-19 14:37:00,40.9,34.9,29.61,SSW,192,10.0,19.0,79,0.00,,---,0.00,VWS V14.01,2013-01-19 20:37:00,
2013-01-19 14:43:00,40.7,34.7,29.61,SSW,194,8.0,19.0,79,0.00,,---,0.00,VWS V14.01,2013-01-19 20:43:00,
2013-01-19 14:48:00,40.5,34.8,29.62,SSW,210,9.0,15.0,80,0.00,,---,0.00,VWS V14.01,2013-01-19 20:48:00,
2013-01-19 14:53:00,40.5,34.8,29.62,SSW,207,11.0,15.0,80,0.00,,---,0.00,VWS V14.01,2013-01-19 20:53:00,
2013-01-19 14:58:00,40.5,34.8,29.62,SSW,192,12.0,15.0,80,0.00,,---,0.00,VWS V14.01,2013-01-19 20:58:00,
2013-01-19 15:03:00,40.5,34.8,29.62,SSW,193,8.0,15.0,80,0.00,,---,0.00,VWS V14.01,2013-01-19 21:03:00,
2013-01-19 15:09:00,40.5,34.8,29.63,SW,222,12.0,17.0,80,0.00,,---,0.00,VWS V14.01,2013-01-19 21:09:00,
2013-01-19 15:14:00,40.6,34.9,29.63,SW,217,12.0,17.0,80,0.00,,---,0.00,VWS V14.01,2013-01-19 21:14:00,
2013-01-19 15:19:00,40.6,34.9,29.63,SW,216,11.0,17.0,80,0.00,,---,0.00,VWS V14.01,2013-01-19 21:19:00,
2013-01-19 15:24:00,40.7,35.0,29.63,SSW,203,10.0,17.0,80,0.00,,---,0.00,VWS V14.01,2013-01-19 21:24:00,
2013-01-19 15:29:00,41.3,35.3,29.63,SW,216,11.0,18.0,79,0.00,,---,0.00,VWS V14.01,2013-01-19 21:29:00,
2013-01-19 15:35:00,40.9,34.9,29.62,SSW,208,11.0,17.0,79,0.00,,---,0.00,VWS V14.01,2013-01-19 21:35:00,
2013-01-19 15:41:00,40.7,34.7,29.62,SSW,199,12.0,17.0,79,0.00,,---,0.00,VWS V14.01,2013-01-19 21:41:00,
2013-01-19 15:46:00,40.5,34.5,29.63,SSW,206,10.0,12.0,79,0.00,,---,0.00,VWS V14.01,2013-01-19 21:46:00,
2013-01-19 15:51:00,40.4,34.4,29.63,SSW,213,10.0,15.0,79,0.00,,---,0.00,VWS V14.01,2013-01-19 21:51:00,
2013-01-19 15:56:00,40.4,34.4,29.62,SSW,205,9.0,16.0,79,0.00,,---,0.00,VWS V14.01,2013-01-19 21:56:00,
2013-01-19 16:02:00,40.2,34.5,29.63,SW,219,10.0,14.0,80,0.00,,---,0.00,VWS V14.01,2013-01-19 22:02:00,
2013-01-19 16:07:00,40.1,34.4,29.63,SW,217,10.0,15.0,80,0.00,,---,0.00,VWS V14.01,2013-01-19 22:07:00,
2013-01-19 16:12:00,39.8,34.1,29.63,SSW,207,9.0,15.0,80,0.00,,---,0.00,VWS V14.01,2013-01-19 22:12:00,
2013-01-19 16:17:00,39.8,34.1,29.63,SSW,206,9.0,11.0,80,0.00,,---,0.00,VWS V14.01,2013-01-19 22:17:00,
2013-01-19 16:23:00,39.7,34.0,29.63,SW,227,10.0,16.0,80,0.00,,---,0.00,VWS V14.01,2013-01-19 22:23:00,
2013-01-19 16:28:00,39.5,33.8,29.63,SW,215,10.0,16.0,80,0.00,,---,0.00,VWS V14.01,2013-01-19 22:28:00,
2013-01-19 16:33:00,39.2,33.9,29.63,SSW,208,12.0,12.0,81,0.00,,---,0.00,VWS V14.01,2013-01-19 22:33:00,
2013-01-19 16:38:00,39.2,33.9,29.63,SW,224,13.0,14.0,81,0.00,,---,0.00,VWS V14.01,2013-01-19 22:38:00,
2013-01-19 16:44:00,38.9,33.6,29.63,SW,219,11.0,14.0,81,0.00,,---,0.00,VWS V14.01,2013-01-19 22:44:00,
2013-01-19 16:49:00,38.7,33.7,29.63,SW,218,9.0,13.0,82,0.00,,---,0.00,VWS V14.01,2013-01-19 22:49:00,
2013-01-19 16:54:00,38.6,33.6,29.63,SW,217,10.0,14.0,82,0.00,,---,0.00,VWS V14.01,2013-01-19 22:54:00,
2013-01-19 16:59:00,38.5,33.5,29.63,SW,216,11.0,14.0,82,0.00,,---,0.00,VWS V14.01,2013-01-19 22:59:00,
2013-01-19 17:05:00,38.5,33.5,29.63,SW,225,8.0,13.0,82,0.00,,---,0.00,VWS V14.01,2013-01-19 23:05:00,
2013-01-19 17:10:00,38.8,33.5,29.63,SW,225,9.0,13.0,81,0.00,,---,0.00,VWS V14.01,2013-01-19 23:10:00,
2013-01-19 17:15:00,39.0,33.7,29.63,SW,225,8.0,14.0,81,0.00,,---,0.00,VWS V14.01,2013-01-19 23:15:00,
2013-01-19 17:20:00,38.8,33.2,29.63,SW,233,7.0,12.0,80,0.00,,---,0.00,VWS V14.01,2013-01-19 23:20:00,
2013-01-19 17:25:00,38.5,33.2,29.63,SW,225,9.0,13.0,81,0.00,,---,0.00,VWS V14.01,2013-01-19 23:25:00,
2013-01-19 17:30:00,38.7,33.4,29.63,WSW,242,9.0,13.0,81,0.00,,---,0.00,VWS V14.01,2013-01-19 23:30:00,
2013-01-19 17:35:00,39.3,33.3,29.63,WSW,238,9.0,13.0,79,0.00,,---,0.00,VWS V14.01,2013-01-19 23:35:00,
2013-01-19 17:40:00,39.9,33.6,29.64,WSW,251,10.0,15.0,78,0.00,,---,0.00,VWS V14.01,2013-01-19 23:40:00,
2013-01-19 17:45:00,40.3,33.7,29.64,WSW,237,11.0,16.0,77,0.00,,---,0.00,VWS V14.01,2013-01-19 23:45:00,
2013-01-19 17:51:00,40.5,33.5,29.64,WSW,258,12.0,19.0,76,0.00,,---,0.00,VWS V14.01,2013-01-19 23:51:00,
2013-01-19 17:57:00,40.2,33.2,29.63,WSW,252,14.0,19.0,76,0.00,,---,0.00,VWS V14.01,2013-01-19 23:57:00,
2013-01-19 18:02:00,40.7,33.1,29.63,WSW,247,11.0,18.0,74,0.00,,---,0.00,VWS V14.01,2013-01-20 00:02:00,
2013-01-19 18:07:00,40.8,32.5,29.64,West,273,13.0,24.0,72,0.00,,---,0.00,VWS V14.01,2013-01-20 00:07:00,
2013-01-19 18:12:00,40.5,32.2,29.64,WSW,242,12.0,24.0,72,0.00,,---,0.00,VWS V14.01,2013-01-20 00:12:00,
2013-01-19 18:17:00,40.6,32.3,29.64,West,261,19.0,26.0,72,0.00,,---,0.00,VWS V14.01,2013-01-20 00:17:00,
2013-01-19 18:22:00,40.5,31.5,29.64,West,275,13.0,26.0,70,0.00,,---,0.00,VWS V14.01,2013-01-20 00:22:00,
2013-01-19 18:27:00,40.5,31.1,29.64,WSW,248,18.0,28.0,69,0.00,,---,0.00,VWS V14.01,2013-01-20 00:27:00,
2013-01-19 18:33:00,40.3,30.6,29.64,West,274,16.0,21.0,68,0.00,,---,0.00,VWS V14.01,2013-01-20 00:33:00,
2013-01-19 18:38:00,40.4,30.0,29.64,West,259,19.0,32.0,66,0.00,,---,0.00,VWS V14.01,2013-01-20 00:38:00,
2013-01-19 18:43:00,40.0,29.9,29.64,WSW,252,18.0,32.0,67,0.00,,---,0.00,VWS V14.01,2013-01-20 00:43:00,
2013-01-19 18:48:00,40.0,28.8,29.64,West,269,17.0,31.0,64,0.00,,---,0.00,VWS V14.01,2013-01-20 00:48:00,
2013-01-19 18:54:00,39.4,29.0,29.64,West,264,21.0,31.0,66,0.00,,---,0.00,VWS V14.01,2013-01-20 00:54:00,
2013-01-19 18:59:00,39.3,28.5,29.64,WSW,250,15.0,33.0,65,0.00,,---,0.00,VWS V14.01,2013-01-20 00:59:00,
2013-01-19 19:04:00,38.9,28.5,29.63,WSW,239,22.0,23.0,66,0.00,,---,0.00,VWS V14.01,2013-01-20 01:04:00,
2013-01-19 19:09:00,38.8,28.4,29.63,SW,229,11.0,25.0,66,0.00,,---,0.00,VWS V14.01,2013-01-20 01:09:00,
2013-01-19 19:15:00,38.7,27.6,29.63,WSW,245,14.0,30.0,64,0.00,,---,0.00,VWS V14.01,2013-01-20 01:15:00,
2013-01-19 19:20:00,38.5,26.2,29.63,WSW,250,30.0,30.0,61,0.00,,---,0.00,VWS V14.01,2013-01-20 01:20:00,
2013-01-19 19:25:00,37.7,23.9,29.63,WSW,248,33.0,39.0,57,0.00,,---,0.00,VWS V14.01,2013-01-20 01:25:00,
2013-01-19 19:30:00,37.4,22.7,29.63,WSW,254,16.0,39.0,55,0.00,,---,0.00,VWS V14.01,2013-01-20 01:30:00,
2013-01-19 19:35:00,37.2,21.2,29.63,WSW,254,22.0,37.0,52,0.00,,---,0.00,VWS V14.01,2013-01-20 01:35:00,
2013-01-19 19:40:00,37.0,19.1,29.62,West,275,26.0,37.0,48,0.00,,---,0.00,VWS V14.01,2013-01-20 01:40:00,
2013-01-19 19:45:00,36.8,17.0,29.62,WSW,242,25.0,37.0,44,0.00,,---,0.00,VWS V14.01,2013-01-20 01:45:00,
2013-01-19 19:50:00,36.2,15.9,29.62,WSW,255,31.0,42.0,43,0.00,,---,0.00,VWS V14.01,2013-01-20 01:50:00,
2013-01-19 19:55:00,35.8,17.1,29.63,West,264,15.0,42.0,46,0.00,,---,0.00,VWS V14.01,2013-01-20 01:55:00,
2013-01-19 20:00:00,35.3,18.1,29.64,SW,225,14.0,42.0,49,0.00,,---,0.00,VWS V14.01,2013-01-20 02:00:00,
2013-01-19 20:05:00,35.0,17.8,29.64,West,261,30.0,35.0,49,0.00,,---,0.00,VWS V14.01,2013-01-20 02:05:00,
2013-01-19 20:10:00,34.4,18.6,29.65,WNW,294,23.0,39.0,52,0.00,,---,0.00,VWS V14.01,2013-01-20 02:10:00,
2013-01-19 20:15:00,33.9,19.0,29.65,WNW,286,17.0,26.0,54,0.00,,---,0.00,VWS V14.01,2013-01-20 02:15:00,
2013-01-19 20:20:00,33.2,19.2,29.67,WNW,295,25.0,32.0,56,0.00,,---,0.00,VWS V14.01,2013-01-20 02:20:00,
2013-01-19 20:25:00,31.8,18.3,29.68,West,271,16.0,33.0,57,0.00,,---,0.00,VWS V14.01,2013-01-20 02:25:00,
2013-01-19 20:31:00,29.3,17.5,29.69,WNW,292,14.0,24.0,61,0.00,,---,0.00,VWS V14.01,2013-01-20 02:31:00,
2013-01-19 20:36:00,27.4,15.7,29.70,WNW,292,25.0,29.0,61,0.00,,---,0.00,VWS V14.01,2013-01-20 02:36:00,
2013-01-19 20:41:00,26.7,14.7,29.71,WNW,288,18.0,31.0,60,0.00,,---,0.00,VWS V14.01,2013-01-20 02:41:00,
2013-01-19 20:46:00,26.2,13.1,29.72,West,277,15.0,20.0,57,0.00,,---,0.00,VWS V14.01,2013-01-20 02:46:00,
2013-01-19 20:51:00,25.2,12.5,29.72,NW,307,14.0,21.0,58,0.00,,---,0.00,VWS V14.01,2013-01-20 02:51:00,
2013-01-19 20:57:00,24.4,12.5,29.74,WSW,250,10.0,22.0,60,0.00,,---,0.00,VWS V14.01,2013-01-20 02:57:00,
2013-01-19 21:02:00,23.8,11.6,29.74,NNW,327,9.0,21.0,59,0.00,,---,0.00,VWS V14.01,2013-01-20 03:02:00,
2013-01-19 21:07:00,23.4,11.6,29.76,West,279,12.0,24.0,60,0.00,,---,0.00,VWS V14.01,2013-01-20 03:07:00,
2013-01-19 21:12:00,22.5,10.4,29.76,West,273,10.0,25.0,59,0.00,,---,0.00,VWS V14.01,2013-01-20 03:12:00,
2013-01-19 21:18:00,21.7,10.0,29.77,WNW,290,12.0,20.0,60,0.00,,---,0.00,VWS V14.01,2013-01-20 03:18:00,
2013-01-19 21:23:00,21.2,9.9,29.78,WNW,286,6.0,20.0,61,0.00,,---,0.00,VWS V14.01,2013-01-20 03:23:00,
2013-01-19 21:29:00,20.8,9.9,29.78,WNW,283,17.0,22.0,62,0.00,,---,0.00,VWS V14.01,2013-01-20 03:29:00,
2013-01-19 21:34:00,20.4,9.1,29.79,West,277,11.0,21.0,61,0.00,,---,0.00,VWS V14.01,2013-01-20 03:34:00,
2013-01-19 21:39:00,20.0,9.1,29.79,WNW,290,15.0,22.0,62,0.00,,---,0.00,VWS V14.01,2013-01-20 03:39:00,
2013-01-19 21:44:00,19.7,9.2,29.80,NW,309,8.0,22.0,63,0.00,,---,0.00,VWS V14.01,2013-01-20 03:44:00,
2013-01-19 21:49:00,19.0,8.5,29.81,WNW,286,4.0,18.0,63,0.00,,---,0.00,VWS V14.01,2013-01-20 03:49:00,
2013-01-19 21:55:00,18.6,8.5,29.81,WNW,286,4.0,18.0,64,0.00,,---,0.00,VWS V14.01,2013-01-20 03:55:00,
2013-01-19 22:00:00,18.2,7.7,29.82,NNW,328,6.0,27.0,63,0.00,,---,0.00,VWS V14.01,2013-01-20 04:00:00,
2013-01-19 22:05:00,17.7,7.6,29.82,West,260,11.0,20.0,64,0.00,,---,0.00,VWS V14.01,2013-01-20 04:05:00,
2013-01-19 22:10:00,17.3,7.2,29.83,WSW,256,19.0,28.0,64,0.00,,---,0.00,VWS V14.01,2013-01-20 04:10:00,
2013-01-19 22:15:00,17.1,7.0,29.84,West,279,8.0,28.0,64,0.00,,---,0.00,VWS V14.01,2013-01-20 04:15:00,
2013-01-19 22:20:00,16.6,6.6,29.84,NW,311,9.0,19.0,64,0.00,,---,0.00,VWS V14.01,2013-01-20 04:20:00,
2013-01-19 22:25:00,16.4,6.4,29.85,WNW,288,15.0,23.0,64,0.00,,---,0.00,VWS V14.01,2013-01-20 04:25:00,
2013-01-19 22:30:00,16.2,5.8,29.85,WSW,257,17.0,22.0,63,0.00,,---,0.00,VWS V14.01,2013-01-20 04:30:00,
2013-01-19 22:35:00,15.8,5.4,29.86,WSW,253,11.0,22.0,63,0.00,,---,0.00,VWS V14.01,2013-01-20 04:35:00,
2013-01-19 22:40:00,15.5,5.5,29.87,West,262,8.0,22.0,64,0.00,,---,0.00,VWS V14.01,2013-01-20 04:40:00,
2013-01-19 22:45:00,15.2,4.9,29.87,WNW,290,6.0,9.0,63,0.00,,---,0.00,VWS V14.01,2013-01-20 04:45:00,
2013-01-19 22:51:00,14.8,4.8,29.88,West,275,12.0,19.0,64,0.00,,---,0.00,VWS V14.01,2013-01-20 04:51:00,
2013-01-19 22:56:00,14.3,4.4,29.88,West,263,15.0,28.0,64,0.00,,---,0.00,VWS V14.01,2013-01-20 04:56:00,
2013-01-19 23:00:00,14.3,4.4,29.89,WSW,256,14.0,28.0,64,0.00,,---,0.00,VWS V14.01,2013-01-20 05:00:00,
2013-01-19 23:01:00,14.3,4.4,29.89,WSW,256,14.0,14.0,64,0.00,,---,0.00,VWS V14.01,2013-01-20 05:01:00,
2013-01-19 23:03:00,14.1,4.8,29.89,West,265,10.0,22.0,66,0.00,,---,0.00,VWS V14.01,2013-01-20 05:03:00,
2013-01-19 23:08:00,14.0,4.8,29.89,West,275,7.0,26.0,66,0.00,,---,0.00,VWS V14.01,2013-01-20 05:08:00,
2013-01-19 23:13:00,13.9,4.3,29.90,WNW,291,4.0,26.0,65,0.00,,---,0.00,VWS V14.01,2013-01-20 05:13:00,
2013-01-19 23:18:00,13.7,4.5,29.90,WNW,282,8.0,24.0,66,0.00,,---,0.00,VWS V14.01,2013-01-20 05:18:00,
2013-01-19 23:23:00,13.6,4.4,29.91,WNW,287,18.0,24.0,66,0.00,,---,0.00,VWS V14.01,2013-01-20 05:23:00,
2013-01-19 23:28:00,13.3,4.1,29.91,West,281,13.0,24.0,66,0.00,,---,0.00,VWS V14.01,2013-01-20 05:28:00,
2013-01-19 23:33:00,13.1,3.9,29.92,West,278,7.0,26.0,66,0.00,,---,0.00,VWS V14.01,2013-01-20 05:33:00,
2013-01-19 23:38:00,13.1,3.6,29.92,West,269,12.0,26.0,65,0.00,,---,0.00,VWS V14.01,2013-01-20 05:38:00,
2013-01-19 23:43:00,13.0,4.1,29.93,West,272,10.0,26.0,67,0.00,,---,0.00,VWS V14.01,2013-01-20 05:43:00,
2013-01-19 23:48:00,12.9,4.3,29.93,WSW,254,12.0,26.0,68,0.00,,---,0.00,VWS V14.01,2013-01-20 05:48:00,
2013-01-19 23:53:00,12.7,3.5,29.94,WSW,247,14.0,28.0,66,0.00,,---,0.00,VWS V14.01,2013-01-20 05:53:00,
2013-01-19 23:59:00,12.3,3.1,29.95,West,272,22.0,28.0,66,0.00,,---,0.00,VWS V14.01,2013-01-20 05:59:00,